Prettynama — DH3283 — position and weather

sailwx.info

Track history (hours):
 
Tides and Currents Weather Stations Pressure Air Temp Water Temp Dewpoint Dewpoint Depression Visibility Wind Speed Wind Dir Waves Ship Positions

Prettynama

Last reported at 2018-May-12 09:36 UTC. Time now 2018-Jun-20 05:36 UTC.
Position N 43°32' W 003°42'.
Warning: this ship's position is 38 days out of date.

Type: Sailing vessel. MMSI: 211267090.

Date/timePositionNaut miles runAvg speedWind from/ knotsBaromVisibWave heightAir tempDewpointWater temp
2018-May-12 09:36N 43°32' W 003°42'0 4.4
2018-May-12 09:30N 43°32' W 003°41'2 4.7
2018-May-12 09:00N 43°32' W 003°38'3 5.9
2018-May-12 08:30N 43°31' W 003°34'3 5.5
2018-May-12 08:00N 43°30' W 003°31'3 6.3
2018-May-12 07:30N 43°28' W 003°27'2 4.4
2018-May-12 06:59N 43°26' W 003°26'1 0.1
2018-May-11 17:33N 43°26' W 003°27'1 3.5
2018-May-11 17:22N 43°26' W 003°26'2 4.3
2018-May-11 16:49N 43°28' W 003°26'2 6.8
2018-May-11 16:29N 43°29' W 003°29'2 4.3
2018-May-11 16:00N 43°30' W 003°32'  
Track history (hours):
 
Tides and Currents Weather Stations Pressure Air Temp Water Temp Dewpoint Dewpoint Depression Visibility Wind Speed Wind Dir Waves Ship Positions

Prettynama

Last reported at 2018-May-12 09:36 UTC. Time now 2018-Jun-20 05:36 UTC.
Position N 43°32' W 003°42'.
Warning: this ship's position is 38 days out of date.

Type: Sailing vessel. MMSI: 211267090.

Date/timePositionNaut miles runAvg speedWind from/ knotsBaromVisibWave heightAir tempDewpointWater temp
2018-May-12 09:36N 43°32' W 003°42'0 4.4
2018-May-12 09:30N 43°32' W 003°41'2 4.7
2018-May-12 09:00N 43°32' W 003°38'3 5.9
2018-May-12 08:30N 43°31' W 003°34'3 5.5
2018-May-12 08:00N 43°30' W 003°31'3 6.3
2018-May-12 07:30N 43°28' W 003°27'2 4.4
2018-May-12 06:59N 43°26' W 003°26'1 0.1
2018-May-11 17:33N 43°26' W 003°27'1 3.5
2018-May-11 17:22N 43°26' W 003°26'2 4.3
2018-May-11 16:49N 43°28' W 003°26'2 6.8
2018-May-11 16:29N 43°29' W 003°29'2 4.3
2018-May-11 16:00N 43°30' W 003°32'  

Dump ship's entire track history